Terminal Aerodrome Forecast
Issued by NWS Pueblo, CO

Home | Current Version | Previous Version | Text Only | Print | Product List | Glossary On
Versions: 1 2 3 4 5 6 7 8 9 10 11 12 13 14 15 16 17 18 19
000
FTUS45 KPUB 242320
TAFALS
TAF
KALS 242320Z 2500/2524 12010KT P6SM BKN070
     FM250200 36006KT P6SM FEW070 SCT200
     FM250400 VRB04KT P6SM SCT200
     FM251800 19007KT P6SM SCT200
     FM252200 21010KT P6SM SCT120 BKN200=

USA.gov is the U.S. government's official web portal to all federal, state and local government web resources and services.